Moundville, Missouri
Current Conditions -  °F | °C
As of 11:35 AM on Thursday 30 Oct 2014 (Local Time) from KPTS Reporting Station
Clear Clear  
Wind Chill: 63°   Ceiling: Unl
Heat Index: 63°   Visibility: 10mi
Dew Point: 45°   Wind: 17mph
Humidity: 51%   Direction: 270°W
Pressure: 30.04"   Gusts: 24mph
Location:  37.76°N, 94.45°W
Report Text: KPTS 301635Z AUTO 27015G21KT 10SM CLR 17/07 A3004 RMK AO2 T01730071
Loading
Personal Weather Stations






























Interactive Weather Map
Tropical Storm Tracking
New forecast layout! Learn more

10-Day Weather Forecast

Advertisements
Track Severe Weather on mobile